createdAt,value
2017-09-24T00:01:07.789Z,79.45
2017-09-24T00:03:36.528Z,79.44
2017-09-24T00:06:05.293Z,79.41
2017-09-24T00:08:37.703Z,79.42
2017-09-24T00:11:06.516Z,79.43
2017-09-24T00:13:35.229Z,79.43
2017-09-24T00:16:03.925Z,79.44
2017-09-24T00:21:05.415Z,79.43
2017-09-24T00:23:34.151Z,79.41
2017-09-24T00:26:02.785Z,79.45
2017-09-24T00:28:33.829Z,79.48
2017-09-24T00:31:02.787Z,79.49
2017-09-24T00:33:31.386Z,79.52
2017-09-24T00:36:00.182Z,79.54
2017-09-24T00:38:28.905Z,79.54
2017-09-24T00:40:57.674Z,79.59
2017-09-24T00:43:26.387Z,79.57
2017-09-24T00:45:55.135Z,79.56
2017-09-24T00:48:23.991Z,79.54
2017-09-24T00:50:52.703Z,79.51
2017-09-24T00:53:21.472Z,79.54
2017-09-24T00:55:49.900Z,79.54
2017-09-24T00:58:18.295Z,79.54
2017-09-24T01:00:47.049Z,79.58
2017-09-24T01:03:15.835Z,79.54
2017-09-24T01:05:44.581Z,79.57
2017-09-24T01:08:13.281Z,79.58
2017-09-24T01:10:42.088Z,79.54
2017-09-24T01:13:10.907Z,80.05
2017-09-24T01:15:39.636Z,80.10
2017-09-24T01:18:08.433Z,79.81
2017-09-24T01:20:36.853Z,79.72
2017-09-24T01:23:05.708Z,79.71
2017-09-24T01:25:34.149Z,79.70
2017-09-24T01:28:02.554Z,79.65
2017-09-24T01:30:33.065Z,79.63
2017-09-24T01:33:01.803Z,79.67
2017-09-24T01:35:30.305Z,79.94
2017-09-24T01:37:58.751Z,79.72
2017-09-24T01:40:27.504Z,79.68
2017-09-24T01:42:56.334Z,79.72
2017-09-24T01:45:25.091Z,79.67
2017-09-24T01:47:53.823Z,79.67
2017-09-24T01:50:22.679Z,79.69
2017-09-24T01:52:51.403Z,79.72
2017-09-24T01:55:20.223Z,79.70
2017-09-24T01:57:49.028Z,79.70
2017-09-24T02:00:17.794Z,79.73
2017-09-24T02:02:46.528Z,79.73
2017-09-24T02:05:15.350Z,79.79
2017-09-24T02:07:44.036Z,79.77
2017-09-24T02:10:12.830Z,79.74
2017-09-24T02:12:41.538Z,79.74
2017-09-24T02:15:10.301Z,79.71
2017-09-24T02:17:39.114Z,79.77
2017-09-24T02:20:07.872Z,79.75
2017-09-24T02:22:36.614Z,79.73
2017-09-24T02:25:05.409Z,79.73
2017-09-24T02:27:34.157Z,79.74
2017-09-24T02:30:02.923Z,79.73
2017-09-24T02:32:31.727Z,79.75
2017-09-24T02:35:00.470Z,79.78
2017-09-24T02:37:29.248Z,79.78
2017-09-24T02:39:58.046Z,79.92
2017-09-24T02:42:26.808Z,79.83
2017-09-24T02:44:55.629Z,79.80
2017-09-24T02:47:24.423Z,79.79
2017-09-24T02:49:53.171Z,79.83
2017-09-24T02:52:21.784Z,79.91
2017-09-24T02:54:50.653Z,79.87
2017-09-24T02:57:19.389Z,79.89
2017-09-24T02:59:48.124Z,80.10
2017-09-24T03:02:16.833Z,79.90
2017-09-24T03:04:45.619Z,80.27
2017-09-24T03:07:14.331Z,80.58
2017-09-24T03:09:43.105Z,80.12
2017-09-24T03:12:11.821Z,80.13
2017-09-24T03:14:40.536Z,80.08
2017-09-24T03:17:09.278Z,80.02
2017-09-24T03:19:38.061Z,80.14
2017-09-24T03:22:06.825Z,80.52
2017-09-24T03:24:35.582Z,80.42
2017-09-24T03:27:04.354Z,80.47
2017-09-24T03:29:33.077Z,80.54
2017-09-24T03:32:01.857Z,80.72
2017-09-24T03:34:30.610Z,81.58
2017-09-24T03:36:59.349Z,81.48
2017-09-24T03:39:28.101Z,82.17
2017-09-24T03:41:56.797Z,82.85
2017-09-24T03:44:25.538Z,81.64
2017-09-24T03:46:54.228Z,82.66
2017-09-24T03:49:22.982Z,82.51
2017-09-24T03:51:51.695Z,82.23
2017-09-24T03:54:20.405Z,81.81
2017-09-24T03:56:49.144Z,81.52
2017-09-24T03:59:17.857Z,81.39
2017-09-24T04:01:46.603Z,81.39
2017-09-24T04:04:15.330Z,81.30
2017-09-24T04:06:44.087Z,81.32
2017-09-24T04:09:12.834Z,81.21
2017-09-24T04:11:41.584Z,81.16
2017-09-24T04:14:10.314Z,81.14
2017-09-24T04:16:39.073Z,81.17
2017-09-24T04:19:07.817Z,80.94
2017-09-24T04:21:36.632Z,81.00
2017-09-24T04:24:05.353Z,80.92
2017-09-24T04:26:34.123Z,80.94
2017-09-24T04:29:02.889Z,80.90
2017-09-24T04:31:31.655Z,80.89
2017-09-24T04:34:00.366Z,81.06
2017-09-24T04:36:29.185Z,80.87
2017-09-24T04:38:58.002Z,81.26
2017-09-24T04:41:26.785Z,80.91
2017-09-24T04:43:55.508Z,81.02
2017-09-24T04:46:24.205Z,81.22
2017-09-24T04:48:52.944Z,80.99
2017-09-24T04:51:21.656Z,81.06
2017-09-24T04:53:50.411Z,81.00
2017-09-24T04:56:18.971Z,80.87
2017-09-24T04:58:47.725Z,81.52
2017-09-24T05:01:16.470Z,80.99
2017-09-24T05:03:45.221Z,81.03
2017-09-24T05:06:14.024Z,81.17
2017-09-24T05:08:42.795Z,81.52
2017-09-24T05:11:11.577Z,81.34
2017-09-24T05:13:40.287Z,81.33
2017-09-24T05:16:09.119Z,81.59
2017-09-24T05:18:38.487Z,81.57
2017-09-24T05:21:07.244Z,81.72
2017-09-24T05:23:36.006Z,82.04
2017-09-24T05:26:04.732Z,81.59
2017-09-24T05:28:36.096Z,81.58
2017-09-24T05:31:04.876Z,81.78
2017-09-24T05:33:33.656Z,81.88
2017-09-24T05:36:02.468Z,82.51
2017-09-24T05:38:34.310Z,81.66
2017-09-24T05:41:03.162Z,81.97
2017-09-24T05:43:31.968Z,81.65
2017-09-24T05:46:00.729Z,81.94
2017-09-24T05:48:29.420Z,82.08
2017-09-24T05:50:58.233Z,81.99
2017-09-24T05:53:26.945Z,81.83
2017-09-24T05:55:55.700Z,81.79
2017-09-24T05:58:24.430Z,83.14
2017-09-24T06:00:53.150Z,82.65
2017-09-24T06:03:21.933Z,82.85
2017-09-24T06:05:50.651Z,82.45
2017-09-24T06:08:19.381Z,82.40
2017-09-24T06:10:47.966Z,82.29
2017-09-24T06:13:16.547Z,82.68
2017-09-24T06:15:45.283Z,82.89
2017-09-24T06:18:14.097Z,83.47
2017-09-24T06:20:42.843Z,84.20
2017-09-24T06:23:11.564Z,84.48
2017-09-24T06:25:40.413Z,83.18
2017-09-24T06:28:09.166Z,83.40
2017-09-24T06:30:37.958Z,83.91
2017-09-24T06:33:06.740Z,84.45
2017-09-24T06:35:39.547Z,83.27
2017-09-24T06:38:08.183Z,83.12
2017-09-24T06:40:36.913Z,82.93
2017-09-24T06:43:05.705Z,83.77
2017-09-24T06:45:34.447Z,83.80
2017-09-24T06:48:03.211Z,83.45
2017-09-24T06:50:32.042Z,84.09
2017-09-24T06:53:00.807Z,83.90
2017-09-24T06:55:29.640Z,83.73
2017-09-24T06:57:58.395Z,83.38
2017-09-24T07:00:27.152Z,83.21
2017-09-24T07:02:55.944Z,82.98
2017-09-24T07:05:24.718Z,84.29
2017-09-24T07:07:53.504Z,84.34
2017-09-24T07:10:22.824Z,84.00
2017-09-24T07:12:51.545Z,83.61
2017-09-24T07:15:20.294Z,83.38
2017-09-24T07:17:49.038Z,83.86
2017-09-24T07:20:17.815Z,83.71
2017-09-24T07:22:46.617Z,84.14
2017-09-24T07:25:15.366Z,83.14
2017-09-24T07:27:44.177Z,84.40
2017-09-24T07:30:12.806Z,85.61
2017-09-24T07:32:41.624Z,85.36
2017-09-24T07:35:10.427Z,85.43
2017-09-24T07:37:39.114Z,85.00
2017-09-24T07:40:07.699Z,84.46
2017-09-24T07:42:36.511Z,85.36
2017-09-24T07:45:05.282Z,85.56
2017-09-24T07:47:34.004Z,85.19
2017-09-24T07:50:02.788Z,85.20
2017-09-24T07:52:31.535Z,83.89
2017-09-24T07:55:00.304Z,85.21
2017-09-24T07:57:28.929Z,84.88
2017-09-24T07:59:57.675Z,85.12
2017-09-24T08:02:26.493Z,85.13
2017-09-24T08:04:55.208Z,84.43
2017-09-24T08:07:23.962Z,83.90
2017-09-24T08:09:52.787Z,84.52
2017-09-24T08:12:21.581Z,85.64
2017-09-24T08:14:50.317Z,85.11
2017-09-24T08:17:19.042Z,85.46
2017-09-24T08:19:47.807Z,86.36
2017-09-24T08:22:17.936Z,85.83
2017-09-24T08:24:46.700Z,85.96
2017-09-24T08:27:15.474Z,86.00
2017-09-24T08:29:44.200Z,85.08
2017-09-24T08:32:12.952Z,84.93
2017-09-24T08:34:41.773Z,84.97
2017-09-24T08:37:10.529Z,86.22
2017-09-24T08:39:39.437Z,85.91
2017-09-24T08:42:08.279Z,86.09
2017-09-24T08:44:37.053Z,85.52
2017-09-24T08:47:05.821Z,84.38
2017-09-24T08:49:34.558Z,85.88
2017-09-24T08:52:03.345Z,85.36
2017-09-24T08:54:32.110Z,85.26
2017-09-24T08:57:00.915Z,85.85
2017-09-24T08:59:29.763Z,84.50
2017-09-24T09:01:58.626Z,86.70
2017-09-24T09:04:27.468Z,86.27
2017-09-24T09:06:56.298Z,85.46
2017-09-24T09:09:25.067Z,85.94
2017-09-24T09:11:53.863Z,85.25
2017-09-24T09:14:22.735Z,85.27
2017-09-24T09:16:51.574Z,84.94
2017-09-24T09:19:20.372Z,84.77
2017-09-24T09:21:49.247Z,85.62
2017-09-24T09:24:18.117Z,85.28
2017-09-24T09:26:47.034Z,85.17
2017-09-24T09:29:18.385Z,84.73
2017-09-24T09:31:47.270Z,86.13
2017-09-24T09:34:27.306Z,84.74
2017-09-24T09:36:56.235Z,85.08
2017-09-24T09:39:25.979Z,85.48
2017-09-24T09:41:54.993Z,84.82
2017-09-24T09:44:36.822Z,84.94
2017-09-24T09:47:16.776Z,84.93
2017-09-24T09:49:45.666Z,85.44
2017-09-24T09:52:14.544Z,85.79
2017-09-24T09:54:43.442Z,85.13
2017-09-24T09:57:12.289Z,84.71
2017-09-24T09:59:41.238Z,85.85
2017-09-24T10:02:10.131Z,85.01
2017-09-24T10:04:39.009Z,85.84
2017-09-24T10:07:18.859Z,86.05
2017-09-24T10:09:58.664Z,84.86
2017-09-24T10:12:27.307Z,84.80
2017-09-24T10:14:56.070Z,85.44
2017-09-24T10:17:24.779Z,85.55
2017-09-24T10:19:53.515Z,84.81
2017-09-24T10:22:22.429Z,85.77
2017-09-24T10:24:51.349Z,85.28
2017-09-24T10:27:21.538Z,85.45
2017-09-24T10:30:01.564Z,85.92
2017-09-24T10:32:30.304Z,84.93
2017-09-24T10:34:59.032Z,85.88
2017-09-24T10:37:27.955Z,85.25
2017-09-24T10:39:56.827Z,84.87
2017-09-24T10:42:25.697Z,84.68
2017-09-24T10:44:54.663Z,84.57
2017-09-24T10:47:23.454Z,86.12
2017-09-24T10:49:52.381Z,85.87
2017-09-24T10:52:21.225Z,85.15
2017-09-24T10:54:50.060Z,84.97
2017-09-24T10:57:18.963Z,85.60
2017-09-24T10:59:47.846Z,85.24
2017-09-24T11:02:16.740Z,85.65
2017-09-24T11:04:46.263Z,85.94
2017-09-24T11:07:15.137Z,85.38
2017-09-24T11:09:44.854Z,85.51
2017-09-24T11:12:13.758Z,85.97
2017-09-24T11:14:42.642Z,85.27
2017-09-24T11:17:11.563Z,85.05
2017-09-24T11:19:40.441Z,85.56
2017-09-24T11:22:09.368Z,85.61
2017-09-24T11:24:38.358Z,84.93
2017-09-24T11:27:07.386Z,84.71
2017-09-24T11:29:36.278Z,85.21
2017-09-24T11:32:05.063Z,85.02
2017-09-24T11:34:35.031Z,85.11
2017-09-24T11:37:03.854Z,85.37
2017-09-24T11:39:32.811Z,85.11
2017-09-24T11:42:01.658Z,85.15
2017-09-24T11:44:30.591Z,84.80
2017-09-24T11:46:59.587Z,85.23
2017-09-24T11:49:29.427Z,84.97
2017-09-24T11:51:58.482Z,84.68
2017-09-24T11:54:27.368Z,85.24
2017-09-24T11:56:58.134Z,84.69
2017-09-24T11:59:27.064Z,85.38
2017-09-24T12:01:56.008Z,84.77
2017-09-24T12:04:24.890Z,85.14
2017-09-24T12:06:54.760Z,85.53
2017-09-24T12:09:23.675Z,85.15
2017-09-24T12:11:52.562Z,85.04
2017-09-24T12:14:21.486Z,85.00
2017-09-24T12:16:50.448Z,84.60
2017-09-24T12:19:19.298Z,84.91
2017-09-24T12:21:48.275Z,84.73
2017-09-24T12:24:17.192Z,84.71
2017-09-24T12:26:46.083Z,84.81
2017-09-24T12:29:14.977Z,84.81
2017-09-24T12:31:43.702Z,84.73
2017-09-24T12:34:12.629Z,84.96
2017-09-24T12:36:41.577Z,84.91
2017-09-24T12:39:10.545Z,84.52
2017-09-24T12:41:40.354Z,84.55
2017-09-24T12:44:09.272Z,84.73
2017-09-24T12:46:41.834Z,84.40
2017-09-24T12:49:10.867Z,84.56
2017-09-24T12:51:39.828Z,84.54
2017-09-24T12:54:08.712Z,84.70
2017-09-24T12:56:37.774Z,85.34
2017-09-24T12:59:06.627Z,85.12
2017-09-24T13:01:36.827Z,84.64
2017-09-24T13:04:08.631Z,84.87
2017-09-24T13:06:37.482Z,84.67
2017-09-24T13:09:06.045Z,84.54
2017-09-24T13:11:34.992Z,84.59
2017-09-24T13:14:04.059Z,84.39
2017-09-24T13:16:33.009Z,84.53
2017-09-24T13:19:01.894Z,85.04
2017-09-24T13:21:30.898Z,84.96
2017-09-24T13:23:59.890Z,84.67
2017-09-24T13:26:28.747Z,84.47
2017-09-24T13:28:57.609Z,84.21
2017-09-24T13:31:26.392Z,84.11
2017-09-24T13:33:55.273Z,84.13
2017-09-24T13:36:24.279Z,84.21
2017-09-24T13:38:53.147Z,84.04
2017-09-24T13:41:21.864Z,84.08
2017-09-24T13:43:50.768Z,84.02
2017-09-24T13:46:19.704Z,83.97
2017-09-24T13:48:48.529Z,83.89
2017-09-24T13:51:17.227Z,83.76
2017-09-24T13:53:46.175Z,83.82
2017-09-24T13:56:15.048Z,83.88
2017-09-24T13:58:43.942Z,83.75
2017-09-24T14:01:12.696Z,83.84
2017-09-24T14:03:41.643Z,83.84
2017-09-24T14:06:14.208Z,83.74
2017-09-24T14:08:44.169Z,83.57
2017-09-24T14:11:14.325Z,83.66
2017-09-24T14:13:43.357Z,83.54
2017-09-24T14:16:12.262Z,83.62
2017-09-24T14:18:41.026Z,83.63
2017-09-24T14:21:09.967Z,83.87
2017-09-24T14:23:38.913Z,83.81
2017-09-24T14:26:08.187Z,83.58
2017-09-24T14:28:37.660Z,83.59
2017-09-24T14:31:07.356Z,83.52
2017-09-24T14:33:36.107Z,83.46
2017-09-24T14:36:05.007Z,83.50
2017-09-24T14:38:37.055Z,83.67
2017-09-24T14:41:05.961Z,83.67
2017-09-24T14:43:35.848Z,83.62
2017-09-24T14:46:04.664Z,83.56
2017-09-24T14:48:36.975Z,83.45
2017-09-24T14:51:09.588Z,83.47
2017-09-24T14:53:39.527Z,83.47
2017-09-24T14:56:10.332Z,83.41
2017-09-24T14:58:40.465Z,83.40
2017-09-24T15:01:11.034Z,83.23
2017-09-24T15:03:39.797Z,83.26
2017-09-24T15:06:16.120Z,83.25
2017-09-24T15:08:44.937Z,83.34
2017-09-24T15:11:13.832Z,83.41
2017-09-24T15:13:42.526Z,83.35
2017-09-24T15:16:11.248Z,83.25
2017-09-24T15:18:39.882Z,83.18
2017-09-24T15:21:08.673Z,83.25
2017-09-24T15:23:37.643Z,83.24
2017-09-24T15:26:06.472Z,83.18
2017-09-24T15:28:37.940Z,83.13
2017-09-24T15:31:06.699Z,83.34
2017-09-24T15:33:36.101Z,83.26
2017-09-24T15:36:05.702Z,83.28
2017-09-24T15:38:37.469Z,83.26
2017-09-24T15:41:06.436Z,83.28
2017-09-24T15:43:35.388Z,83.20
2017-09-24T15:46:04.084Z,83.16
2017-09-24T15:48:36.555Z,83.19
2017-09-24T15:51:05.368Z,83.15
2017-09-24T15:53:33.974Z,83.11
2017-09-24T15:56:02.659Z,83.16
2017-09-24T15:58:36.262Z,83.17
2017-09-24T16:01:05.049Z,83.25
2017-09-24T16:03:33.847Z,83.24
2017-09-24T16:06:02.616Z,83.25
2017-09-24T16:08:35.634Z,83.35
2017-09-24T16:11:04.312Z,83.42
2017-09-24T16:13:34.587Z,83.50
2017-09-24T16:16:03.434Z,83.43
2017-09-24T16:18:35.481Z,83.45
2017-09-24T16:21:04.258Z,83.40
2017-09-24T16:23:41.615Z,83.51
2017-09-24T16:26:15.331Z,83.57
2017-09-24T16:28:49.960Z,83.60
2017-09-24T16:31:18.627Z,83.51
2017-09-24T16:33:49.456Z,83.59
2017-09-24T16:36:19.072Z,83.53
2017-09-24T16:38:48.851Z,83.59
2017-09-24T16:41:32.502Z,83.54
2017-09-24T16:44:03.817Z,83.54
2017-09-24T16:49:10.471Z,83.60
2017-09-24T16:51:45.837Z,83.67
2017-09-24T16:54:24.795Z,83.73
2017-09-24T16:57:02.706Z,83.57
2017-09-24T16:59:38.928Z,83.62
2017-09-24T17:02:15.267Z,83.64
2017-09-24T17:04:47.481Z,83.53
2017-09-24T17:07:21.794Z,83.65
2017-09-24T17:09:52.801Z,83.58
2017-09-24T17:12:25.644Z,83.61
2017-09-24T17:15:03.534Z,83.72
2017-09-24T17:17:39.779Z,83.76
2017-09-24T17:20:11.566Z,83.79
2017-09-24T17:22:43.128Z,83.83
2017-09-24T17:25:15.646Z,83.71
2017-09-24T17:27:46.618Z,83.58
2017-09-24T17:30:17.579Z,83.76
2017-09-24T17:32:49.704Z,83.80
2017-09-24T17:35:18.990Z,83.96
2017-09-24T17:37:52.503Z,84.01
2017-09-24T17:40:22.370Z,83.88
2017-09-24T17:42:53.177Z,84.13
2017-09-24T17:45:25.809Z,83.93
2017-09-24T17:47:55.919Z,84.09
2017-09-24T17:50:30.209Z,83.96
2017-09-24T17:53:09.034Z,84.11
2017-09-24T17:55:43.951Z,84.04
2017-09-24T18:00:58.658Z,84.11
2017-09-24T18:03:30.140Z,84.02
2017-09-24T18:06:13.589Z,83.99
2017-09-24T18:08:46.671Z,83.72
2017-09-24T18:11:29.554Z,83.78
2017-09-24T18:14:07.665Z,83.43
2017-09-24T18:16:46.013Z,83.36
2017-09-24T18:19:17.583Z,83.33
2017-09-24T18:21:50.755Z,83.47
2017-09-24T18:24:23.977Z,83.16
2017-09-24T18:26:54.878Z,82.94
2017-09-24T18:29:27.596Z,82.88
2017-09-24T18:32:03.463Z,82.60
2017-09-24T18:34:39.215Z,82.48
2017-09-24T18:37:14.056Z,82.37
2017-09-24T18:39:43.767Z,82.26
2017-09-24T18:42:27.495Z,82.18
2017-09-24T18:47:55.846Z,82.04
2017-09-24T18:50:36.380Z,82.03
2017-09-24T18:53:19.083Z,81.96
2017-09-24T18:55:56.183Z,81.98
2017-09-24T18:58:35.046Z,81.96
2017-09-24T19:01:17.036Z,81.95
2017-09-24T19:03:53.808Z,81.99
2017-09-24T19:06:29.028Z,81.95
2017-09-24T19:09:02.058Z,81.93
2017-09-24T19:11:40.466Z,81.91
2017-09-24T19:16:53.921Z,81.93
2017-09-24T19:19:29.758Z,81.96
2017-09-24T19:24:51.111Z,81.95
2017-09-24T19:27:21.460Z,81.99
2017-09-24T19:29:53.731Z,82.00
2017-09-24T19:32:26.739Z,82.01
2017-09-24T19:35:02.940Z,82.01
2017-09-24T19:37:44.201Z,82.01
2017-09-24T19:40:22.813Z,82.00
2017-09-24T19:42:52.321Z,82.01
2017-09-24T19:45:25.101Z,82.02
2017-09-24T19:48:00.215Z,82.01
2017-09-24T19:50:38.018Z,82.00
2017-09-24T19:53:12.442Z,81.99
2017-09-24T19:55:52.816Z,82.00
2017-09-24T19:58:34.009Z,81.98
2017-09-24T20:01:09.313Z,81.98
2017-09-24T20:03:43.856Z,82.00
2017-09-24T20:09:09.483Z,82.01
2017-09-24T20:11:49.554Z,82.06
2017-09-24T20:14:21.264Z,82.04
2017-09-24T20:19:45.215Z,82.11
2017-09-24T20:22:24.215Z,82.14
2017-09-24T20:25:03.791Z,82.14
2017-09-24T20:30:51.461Z,82.18
2017-09-24T20:33:25.298Z,82.19
2017-09-24T20:35:57.929Z,82.30
2017-09-24T20:38:31.310Z,82.24
2017-09-24T20:41:05.184Z,82.25
2017-09-24T20:43:40.451Z,82.28
2017-09-24T20:46:32.473Z,82.33
2017-09-24T20:49:24.694Z,82.34
2017-09-24T20:52:16.525Z,82.30
2017-09-24T20:55:05.100Z,82.34
2017-09-24T20:57:49.670Z,82.36
2017-09-24T21:00:36.287Z,82.33
2017-09-24T21:03:21.578Z,82.36
2017-09-24T21:06:06.817Z,82.32
2017-09-24T21:17:31.262Z,82.35
2017-09-24T21:23:16.013Z,82.43
2017-09-24T21:31:40.241Z,82.46
2017-09-24T21:34:25.969Z,82.42
2017-09-24T21:37:11.099Z,82.53
2017-09-24T21:39:57.929Z,82.56
2017-09-24T21:42:39.216Z,82.57
2017-09-24T21:45:25.482Z,82.73
2017-09-24T21:48:10.737Z,82.63
2017-09-24T21:50:56.457Z,82.64
2017-09-24T21:53:44.623Z,82.65
2017-09-24T21:56:31.656Z,82.72
2017-09-24T21:59:12.162Z,82.68
2017-09-24T22:01:52.431Z,82.86
2017-09-24T22:04:32.277Z,82.78
2017-09-24T22:07:12.719Z,83.07
2017-09-24T22:09:53.911Z,83.23
2017-09-24T22:12:36.387Z,83.39
2017-09-24T22:15:18.617Z,83.51
2017-09-24T22:18:01.816Z,83.73
2017-09-24T22:20:42.100Z,83.81
2017-09-24T22:23:23.081Z,83.98
2017-09-24T22:26:04.774Z,83.61
2017-09-24T22:28:48.943Z,84.51
2017-09-24T22:31:30.009Z,84.05
2017-09-24T22:34:05.551Z,84.44
2017-09-24T22:36:38.052Z,84.53
2017-09-24T22:39:11.633Z,84.69
2017-09-24T22:41:43.791Z,84.39
2017-09-24T22:44:16.125Z,84.51
2017-09-24T22:46:47.047Z,84.81
2017-09-24T22:49:18.998Z,84.58
2017-09-24T22:52:02.175Z,84.85
2017-09-24T22:54:35.706Z,84.73
2017-09-24T22:57:06.787Z,84.28
2017-09-24T22:59:42.476Z,84.10
2017-09-24T23:02:12.673Z,84.07
2017-09-24T23:04:44.267Z,84.28
2017-09-24T23:07:19.085Z,84.31
2017-09-24T23:09:54.745Z,83.87
2017-09-24T23:12:26.910Z,84.10
2017-09-24T23:14:59.481Z,83.88
2017-09-24T23:17:31.443Z,84.05
2017-09-24T23:20:08.165Z,84.00
2017-09-24T23:22:41.249Z,83.98
2017-09-24T23:25:11.433Z,83.98
2017-09-24T23:27:43.691Z,83.96
2017-09-24T23:30:13.328Z,83.72
2017-09-24T23:32:42.891Z,84.04
2017-09-24T23:35:12.664Z,84.32
2017-09-24T23:37:41.420Z,83.90
2017-09-24T23:40:10.160Z,83.79
2017-09-24T23:42:38.915Z,84.18
2017-09-24T23:45:07.771Z,84.46
2017-09-24T23:47:36.467Z,83.95
2017-09-24T23:50:05.259Z,84.14
2017-09-24T23:52:33.983Z,84.04
2017-09-24T23:55:02.853Z,84.62
2017-09-24T23:57:31.681Z,84.45
